createdAt,value
2018-09-20T00:01:26.340Z,13.07
2018-09-20T00:03:54.749Z,13.13
2018-09-20T00:06:23.122Z,16.60
2018-09-20T00:08:51.532Z,13.90
2018-09-20T00:11:19.954Z,11.33
2018-09-20T00:13:48.333Z,12.07
2018-09-20T00:16:16.781Z,12.30
2018-09-20T00:18:45.244Z,11.93
2018-09-20T00:21:13.681Z,13.87
2018-09-20T00:23:42.099Z,15.90
2018-09-20T00:26:10.561Z,17.77
2018-09-20T00:28:38.924Z,19.17
2018-09-20T00:31:07.382Z,15.13
2018-09-20T00:33:35.770Z,11.63
2018-09-20T00:36:04.192Z,14.17
2018-09-20T00:38:32.674Z,11.67
2018-09-20T00:41:01.075Z,12.97
2018-09-20T00:43:29.461Z,11.97
2018-09-20T00:45:57.923Z,11.03
2018-09-20T00:48:26.301Z,10.97
2018-09-20T00:50:54.720Z,9.93
2018-09-20T00:53:23.137Z,11.03
2018-09-20T00:55:51.560Z,15.30
2018-09-20T00:58:19.981Z,11.37
2018-09-20T01:00:48.392Z,10.17
2018-09-20T01:03:16.799Z,12.60
2018-09-20T01:05:45.176Z,14.63
2018-09-20T01:08:13.601Z,11.20
2018-09-20T01:10:42.032Z,11.80
2018-09-20T01:13:10.404Z,16.93
2018-09-20T01:15:38.807Z,17.13
2018-09-20T01:18:07.293Z,11.90
2018-09-20T01:20:35.708Z,8.27
2018-09-20T01:23:04.135Z,11.87
2018-09-20T01:25:32.769Z,13.27
2018-09-20T01:28:01.189Z,6.97
2018-09-20T01:30:29.601Z,20.53
2018-09-20T01:32:58.561Z,13.70
2018-09-20T01:35:26.977Z,19.03
2018-09-20T01:37:55.391Z,9.13
2018-09-20T01:40:23.800Z,16.43
2018-09-20T01:42:52.212Z,16.93
2018-09-20T01:45:20.616Z,12.83
2018-09-20T01:47:49.004Z,10.33
2018-09-20T01:50:17.428Z,10.63
2018-09-20T01:52:45.978Z,14.00
2018-09-20T01:55:14.351Z,11.40
2018-09-20T01:57:42.792Z,17.43
2018-09-20T02:00:11.196Z,16.43
2018-09-20T02:02:39.598Z,16.67
2018-09-20T02:05:08.135Z,9.70
2018-09-20T02:07:36.543Z,8.83
2018-09-20T02:10:05.048Z,9.40
2018-09-20T02:12:33.467Z,11.03
2018-09-20T02:15:01.830Z,13.73
2018-09-20T02:17:30.581Z,10.87
2018-09-20T02:19:58.981Z,10.23
2018-09-20T02:22:27.424Z,15.30
2018-09-20T02:24:55.881Z,8.17
2018-09-20T02:27:25.225Z,11.97
2018-09-20T02:29:53.686Z,12.40
2018-09-20T02:32:22.085Z,10.90
2018-09-20T02:34:50.491Z,11.20
2018-09-20T02:37:18.965Z,10.53
2018-09-20T02:39:47.367Z,10.97
2018-09-20T02:42:15.743Z,17.97
2018-09-20T02:44:44.141Z,11.40
2018-09-20T02:47:12.593Z,15.80
2018-09-20T02:49:41.036Z,14.87
2018-09-20T02:52:09.579Z,10.67
2018-09-20T02:54:37.993Z,11.23
2018-09-20T02:57:06.417Z,14.67
2018-09-20T02:59:34.828Z,12.87
2018-09-20T03:02:03.277Z,16.93
2018-09-20T03:04:31.700Z,11.70
2018-09-20T03:07:00.084Z,12.77
2018-09-20T03:09:28.496Z,13.13
2018-09-20T03:11:56.916Z,21.03
2018-09-20T03:14:25.319Z,15.23
2018-09-20T03:16:53.741Z,12.33
2018-09-20T03:19:22.122Z,13.83
2018-09-20T03:21:50.592Z,16.57
2018-09-20T03:24:18.994Z,25.63
2018-09-20T03:26:47.469Z,13.37
2018-09-20T03:29:15.904Z,9.73
2018-09-20T03:31:44.338Z,16.57
2018-09-20T03:34:12.778Z,13.43
2018-09-20T03:36:41.749Z,16.80
2018-09-20T03:39:11.249Z,17.73
2018-09-20T03:41:40.033Z,14.37
2018-09-20T03:44:08.486Z,15.80
2018-09-20T03:46:36.865Z,13.37
2018-09-20T03:49:05.450Z,13.03
2018-09-20T03:51:33.911Z,13.50
2018-09-20T03:54:02.425Z,12.10
2018-09-20T03:56:30.849Z,13.00
2018-09-20T03:58:59.272Z,14.90
2018-09-20T04:01:27.675Z,17.90
2018-09-20T04:03:56.129Z,15.27
2018-09-20T04:06:24.556Z,16.33
2018-09-20T04:08:53.065Z,12.77
2018-09-20T04:11:21.489Z,18.77
2018-09-20T04:13:49.891Z,13.57
2018-09-20T04:16:18.291Z,14.80
2018-09-20T04:18:46.994Z,13.33
2018-09-20T04:21:19.814Z,14.80
2018-09-20T04:23:48.209Z,17.80
2018-09-20T04:26:16.625Z,16.90
2018-09-20T04:28:45.057Z,12.90
2018-09-20T04:31:13.476Z,17.77
2018-09-20T04:33:41.880Z,18.77
2018-09-20T04:36:10.257Z,12.97
2018-09-20T04:38:38.661Z,21.40
2018-09-20T04:41:07.060Z,14.57
2018-09-20T04:43:36.126Z,13.17
2018-09-20T04:46:04.509Z,17.50
2018-09-20T04:48:33.051Z,25.60
2018-09-20T04:51:01.464Z,14.20
2018-09-20T04:53:29.865Z,17.17
2018-09-20T04:55:58.269Z,16.23
2018-09-20T04:58:26.658Z,16.33
2018-09-20T05:00:55.127Z,16.20
2018-09-20T05:03:23.657Z,18.00
2018-09-20T05:05:52.104Z,21.07
2018-09-20T05:08:21.207Z,16.70
2018-09-20T05:10:49.638Z,15.80
2018-09-20T05:13:18.397Z,23.00
2018-09-20T05:15:47.810Z,15.70
2018-09-20T05:18:16.263Z,16.90
2018-09-20T05:20:44.732Z,17.67
2018-09-20T05:23:13.348Z,15.20
2018-09-20T05:25:41.825Z,21.80
2018-09-20T05:28:10.913Z,22.13
2018-09-20T05:30:39.391Z,18.90
2018-09-20T05:33:07.852Z,16.20
2018-09-20T05:35:36.590Z,17.27
2018-09-20T05:38:04.964Z,18.93
2018-09-20T05:40:33.382Z,23.57
2018-09-20T05:43:01.784Z,16.53
2018-09-20T05:45:30.193Z,18.87
2018-09-20T05:47:58.623Z,18.63
2018-09-20T05:50:27.049Z,17.13
2018-09-20T05:52:55.682Z,19.37
2018-09-20T05:55:24.426Z,13.60
2018-09-20T05:57:52.820Z,20.47
2018-09-20T06:00:21.356Z,23.67
2018-09-20T06:02:50.272Z,23.20
2018-09-20T06:05:18.716Z,14.77
2018-09-20T06:07:47.096Z,19.27
2018-09-20T06:10:15.536Z,16.10
2018-09-20T06:12:43.979Z,21.53
2018-09-20T06:15:12.390Z,18.23
2018-09-20T06:17:40.796Z,19.90
2018-09-20T06:20:09.197Z,13.53
2018-09-20T06:22:37.600Z,25.13
2018-09-20T06:25:06.230Z,21.60
2018-09-20T06:27:34.702Z,29.37
2018-09-20T06:30:03.444Z,20.63
2018-09-20T06:32:31.892Z,20.73
2018-09-20T06:35:00.355Z,22.33
2018-09-20T06:37:28.739Z,20.83
2018-09-20T06:39:57.149Z,17.37
2018-09-20T06:42:25.585Z,13.60
2018-09-20T06:44:54.032Z,17.20
2018-09-20T06:47:22.444Z,12.77
2018-09-20T06:49:51.744Z,31.07
2018-09-20T06:52:20.156Z,17.27
2018-09-20T06:54:48.572Z,20.30
2018-09-20T06:57:17.009Z,28.27
2018-09-20T06:59:45.707Z,16.40
2018-09-20T07:02:14.138Z,18.13
2018-09-20T07:04:42.540Z,16.93
2018-09-20T07:07:10.990Z,18.37
2018-09-20T07:09:39.437Z,21.27
2018-09-20T07:12:07.805Z,20.50
2018-09-20T07:14:36.220Z,17.50
2018-09-20T07:17:04.776Z,16.63
2018-09-20T07:19:33.214Z,19.67
2018-09-20T07:22:01.634Z,26.50
2018-09-20T07:24:30.039Z,29.70
2018-09-20T07:26:58.498Z,20.83
2018-09-20T07:29:26.899Z,20.83
2018-09-20T07:31:55.340Z,21.87
2018-09-20T07:34:23.733Z,29.10
2018-09-20T07:36:52.833Z,22.00
2018-09-20T07:39:21.803Z,23.27
2018-09-20T07:41:50.183Z,34.10
2018-09-20T07:44:18.629Z,35.27
2018-09-20T07:46:47.070Z,27.60
2018-09-20T07:49:15.472Z,20.07
2018-09-20T07:51:43.947Z,30.73
2018-09-20T07:54:12.341Z,24.53
2018-09-20T07:56:40.824Z,23.33
2018-09-20T07:59:09.392Z,19.00
2018-09-20T08:01:37.863Z,20.63
2018-09-20T08:04:06.252Z,17.87
2018-09-20T08:06:34.649Z,21.47
2018-09-20T08:09:03.210Z,30.77
2018-09-20T08:11:31.643Z,17.90
2018-09-20T08:14:01.472Z,26.00
2018-09-20T08:16:29.872Z,19.37
2018-09-20T08:18:58.396Z,25.60
2018-09-20T08:21:26.838Z,15.83
2018-09-20T08:23:55.310Z,23.70
2018-09-20T08:26:23.819Z,21.83
2018-09-20T08:28:52.488Z,25.97
2018-09-20T08:31:20.886Z,24.13
2018-09-20T08:33:49.333Z,20.17
2018-09-20T08:36:17.752Z,20.17
2018-09-20T08:38:46.785Z,18.20
2018-09-20T08:41:15.779Z,18.47
2018-09-20T08:43:44.300Z,16.97
2018-09-20T08:46:13.744Z,26.80
2018-09-20T08:48:42.112Z,26.73
2018-09-20T08:51:10.620Z,22.33
2018-09-20T08:53:39.011Z,18.90
2018-09-20T08:56:07.595Z,27.17
2018-09-20T08:58:35.977Z,20.50
2018-09-20T09:01:05.418Z,20.53
2018-09-20T09:03:33.813Z,14.87
2018-09-20T09:06:02.344Z,18.40
2018-09-20T09:08:31.221Z,17.67
2018-09-20T09:11:00.018Z,18.30
2018-09-20T09:13:28.491Z,19.50
2018-09-20T09:15:56.941Z,19.40
2018-09-20T09:18:25.506Z,19.20
2018-09-20T09:20:53.931Z,17.87
2018-09-20T09:23:22.729Z,13.70
2018-09-20T09:25:51.141Z,13.93
2018-09-20T09:28:20.229Z,14.90
2018-09-20T09:30:48.668Z,17.77
2018-09-20T09:33:17.137Z,24.17
2018-09-20T09:35:45.572Z,10.87
2018-09-20T09:38:14.976Z,17.13
2018-09-20T09:40:43.458Z,10.70
2018-09-20T09:43:12.208Z,18.03
2018-09-20T09:45:40.584Z,15.40
2018-09-20T09:48:09.014Z,16.77
2018-09-20T09:50:37.675Z,14.80
2018-09-20T09:53:06.288Z,17.67
2018-09-20T09:55:34.745Z,19.23
2018-09-20T09:58:03.190Z,15.33
2018-09-20T10:00:34.001Z,13.90
2018-09-20T10:03:02.423Z,15.57
2018-09-20T10:05:30.816Z,14.13
2018-09-20T10:07:59.253Z,20.53
2018-09-20T10:10:28.156Z,15.10
2018-09-20T10:12:57.168Z,12.17
2018-09-20T10:15:25.583Z,20.33
2018-09-20T10:17:53.965Z,18.73
2018-09-20T10:20:22.381Z,13.50
2018-09-20T10:22:50.824Z,20.40
2018-09-20T10:25:19.247Z,15.23
2018-09-20T10:27:47.748Z,14.43
2018-09-20T10:30:16.156Z,14.20
2018-09-20T10:32:44.561Z,18.10
2018-09-20T10:35:13.122Z,14.60
2018-09-20T10:37:41.622Z,9.60
2018-09-20T10:40:10.057Z,15.60
2018-09-20T10:42:38.456Z,17.73
2018-09-20T10:45:06.930Z,12.83
2018-09-20T10:47:35.322Z,11.70
2018-09-20T10:50:03.740Z,12.17
2018-09-20T10:52:33.017Z,12.80
2018-09-20T10:55:01.584Z,10.10
2018-09-20T10:57:30.738Z,14.93
2018-09-20T10:59:59.124Z,10.20
2018-09-20T11:02:27.570Z,25.50
2018-09-20T11:04:55.993Z,12.07
2018-09-20T11:07:24.572Z,16.30
2018-09-20T11:09:53.067Z,9.57
2018-09-20T11:12:21.573Z,19.27
2018-09-20T11:14:50.001Z,17.13
2018-09-20T11:17:19.154Z,11.70
2018-09-20T11:19:47.557Z,17.70
2018-09-20T11:22:16.029Z,16.60
2018-09-20T11:24:45.116Z,12.97
2018-09-20T11:27:13.541Z,13.07
2018-09-20T11:29:41.978Z,18.33
2018-09-20T11:32:10.438Z,16.00
2018-09-20T11:34:38.913Z,14.83
2018-09-20T11:37:07.361Z,15.90
2018-09-20T11:39:36.160Z,10.47
2018-09-20T11:42:05.644Z,18.50
2018-09-20T11:44:34.144Z,14.13
2018-09-20T11:47:03.090Z,10.00
2018-09-20T11:49:31.629Z,12.53
2018-09-20T11:52:00.137Z,12.97
2018-09-20T11:54:28.628Z,14.13
2018-09-20T11:56:57.102Z,9.47
2018-09-20T11:59:25.970Z,17.70
2018-09-20T12:01:54.390Z,15.13
2018-09-20T12:04:23.987Z,15.53
2018-09-20T12:06:52.445Z,11.03
2018-09-20T12:09:20.839Z,14.43
2018-09-20T12:11:49.273Z,13.80
2018-09-20T12:14:17.707Z,16.10
2018-09-20T12:16:46.260Z,7.93
2018-09-20T12:19:14.765Z,9.57
2018-09-20T12:21:43.185Z,12.50
2018-09-20T12:24:11.621Z,8.10
2018-09-20T12:26:40.064Z,9.90
2018-09-20T12:29:08.492Z,13.17
2018-09-20T12:31:36.906Z,12.03
2018-09-20T12:34:05.448Z,13.93
2018-09-20T12:36:33.895Z,16.53
2018-09-20T12:39:02.449Z,13.23
2018-09-20T12:41:30.970Z,11.80
2018-09-20T12:43:59.432Z,13.90
2018-09-20T12:46:27.833Z,9.80
2018-09-20T12:48:56.302Z,9.33
2018-09-20T12:51:25.569Z,9.37
2018-09-20T12:53:54.016Z,8.23
2018-09-20T12:56:23.667Z,14.97
2018-09-20T12:58:52.441Z,10.47
2018-09-20T13:01:22.289Z,6.40
2018-09-20T13:03:51.835Z,11.60
2018-09-20T13:06:20.311Z,7.60
2018-09-20T13:08:48.762Z,9.77
2018-09-20T13:11:18.516Z,7.70
2018-09-20T13:13:47.053Z,5.87
2018-09-20T13:16:15.498Z,7.60
2018-09-20T13:18:44.863Z,14.20
2018-09-20T13:21:13.331Z,7.83
2018-09-20T13:23:41.744Z,13.30
2018-09-20T13:26:10.345Z,11.67
2018-09-20T13:28:38.896Z,10.33
2018-09-20T13:31:07.304Z,11.30
2018-09-20T13:33:37.511Z,11.53
2018-09-20T13:36:06.076Z,15.87
2018-09-20T13:38:34.558Z,12.23
2018-09-20T13:41:04.009Z,8.77
2018-09-20T13:43:32.454Z,12.70
2018-09-20T13:46:01.010Z,10.50
2018-09-20T13:48:29.936Z,9.73
2018-09-20T13:50:58.376Z,7.90
2018-09-20T13:53:26.926Z,14.97
2018-09-20T13:55:55.381Z,12.60
2018-09-20T13:58:23.832Z,9.53
2018-09-20T14:00:52.365Z,6.27
2018-09-20T14:03:21.674Z,9.57
2018-09-20T14:05:50.466Z,13.03
2018-09-20T14:08:19.299Z,11.13
2018-09-20T14:10:48.513Z,11.33
2018-09-20T14:13:17.009Z,9.43
2018-09-20T14:15:45.462Z,10.87
2018-09-20T14:18:13.980Z,9.40
2018-09-20T14:20:42.901Z,10.20
2018-09-20T14:23:11.353Z,11.90
2018-09-20T14:25:39.748Z,6.23
2018-09-20T14:28:08.185Z,11.57
2018-09-20T14:30:36.664Z,10.10
2018-09-20T14:33:05.158Z,13.00
2018-09-20T14:35:33.614Z,6.73
2018-09-20T14:38:02.149Z,7.20
2018-09-20T14:40:30.562Z,14.20
2018-09-20T14:42:58.973Z,11.40
2018-09-20T14:45:27.401Z,8.80
2018-09-20T14:47:55.806Z,11.73
2018-09-20T14:50:24.456Z,11.20
2018-09-20T14:52:52.887Z,10.60
2018-09-20T14:55:21.497Z,10.60
2018-09-20T14:57:49.972Z,9.90
2018-09-20T15:00:19.299Z,13.33
2018-09-20T15:02:47.956Z,12.97
2018-09-20T15:05:16.386Z,8.33
2018-09-20T15:07:44.781Z,8.87
2018-09-20T15:10:13.244Z,6.00
2018-09-20T15:12:41.655Z,9.37
2018-09-20T15:15:10.134Z,7.70
2018-09-20T15:17:38.556Z,9.23
2018-09-20T15:20:07.059Z,8.17
2018-09-20T15:22:35.455Z,9.47
2018-09-20T15:25:03.960Z,10.90
2018-09-20T15:27:32.365Z,8.10
2018-09-20T15:30:00.969Z,7.67
2018-09-20T15:32:29.996Z,9.53
2018-09-20T15:34:58.398Z,14.40
2018-09-20T15:37:26.831Z,10.03
2018-09-20T15:39:55.301Z,16.87
2018-09-20T15:42:23.760Z,10.33
2018-09-20T15:44:52.201Z,10.20
2018-09-20T15:47:20.673Z,9.50
2018-09-20T15:49:49.106Z,13.27
2018-09-20T15:52:19.711Z,10.10
2018-09-20T15:54:49.409Z,10.27
2018-09-20T15:57:18.057Z,8.27
2018-09-20T15:59:47.089Z,12.53
2018-09-20T16:02:15.504Z,12.93
2018-09-20T16:04:43.973Z,12.73
2018-09-20T16:07:12.452Z,13.53
2018-09-20T16:09:41.872Z,14.17
2018-09-20T16:12:10.430Z,9.83
2018-09-20T16:14:39.591Z,12.00
2018-09-20T16:17:08.005Z,10.30
2018-09-20T16:19:36.435Z,11.17
2018-09-20T16:22:04.871Z,15.57
2018-09-20T16:24:33.383Z,12.63
2018-09-20T16:27:01.812Z,7.10
2018-09-20T16:30:08.508Z,13.93
2018-09-20T16:33:14.431Z,9.53
2018-09-20T16:35:49.756Z,6.17
2018-09-20T16:39:37.069Z,8.53
2018-09-20T16:42:06.800Z,7.73
2018-09-20T16:44:36.027Z,10.10
2018-09-20T16:47:45.002Z,13.77
2018-09-20T16:50:13.487Z,10.50
2018-09-20T16:52:41.958Z,15.00
2018-09-20T16:55:10.417Z,8.07
2018-09-20T16:57:38.898Z,11.57
2018-09-20T17:00:09.429Z,8.93
2018-09-20T17:02:37.882Z,7.73
2018-09-20T17:05:06.361Z,6.87
2018-09-20T17:07:34.750Z,6.47
2018-09-20T17:10:03.225Z,10.43
2018-09-20T17:12:31.639Z,7.27
2018-09-20T17:15:00.358Z,10.80
2018-09-20T17:17:28.712Z,10.47
2018-09-20T17:19:57.198Z,8.33
2018-09-20T17:22:25.633Z,9.93
2018-09-20T17:24:54.225Z,7.30
2018-09-20T17:27:22.706Z,8.20
2018-09-20T17:29:51.153Z,10.67
2018-09-20T17:32:19.633Z,10.40
2018-09-20T17:34:48.352Z,7.67
2018-09-20T17:37:17.643Z,7.33
2018-09-20T17:39:47.307Z,9.03
2018-09-20T17:42:16.174Z,7.80
2018-09-20T17:44:44.566Z,8.60
2018-09-20T17:47:13.124Z,9.23
2018-09-20T17:49:41.578Z,9.97
2018-09-20T17:52:10.380Z,9.23
2018-09-20T17:54:39.199Z,12.20
2018-09-20T17:57:08.106Z,8.73
2018-09-20T17:59:36.567Z,8.77
2018-09-20T18:02:05.024Z,13.90
2018-09-20T18:04:33.486Z,14.10
2018-09-20T18:07:01.989Z,19.97
2018-09-20T18:09:30.438Z,21.90
2018-09-20T18:11:59.617Z,26.30
2018-09-20T18:14:28.129Z,21.27
2018-09-20T18:16:56.686Z,17.63
2018-09-20T18:19:25.129Z,17.50
2018-09-20T18:21:53.610Z,15.40
2018-09-20T18:24:22.330Z,23.27
2018-09-20T18:26:50.774Z,15.63
2018-09-20T18:29:19.765Z,12.83
2018-09-20T18:31:48.201Z,11.30
2018-09-20T18:34:16.683Z,27.43
2018-09-20T18:36:45.057Z,17.53
2018-09-20T18:39:14.558Z,14.47
2018-09-20T18:41:44.832Z,22.90
2018-09-20T18:44:13.331Z,21.73
2018-09-20T18:46:41.806Z,16.17
2018-09-20T18:49:10.309Z,18.80
2018-09-20T18:51:38.767Z,14.47
2018-09-20T18:54:07.253Z,13.57
2018-09-20T18:56:35.787Z,12.27
2018-09-20T18:59:04.232Z,10.50
2018-09-20T19:01:32.702Z,15.07
2018-09-20T19:04:01.180Z,9.70
2018-09-20T19:06:29.619Z,7.33
2018-09-20T19:08:58.089Z,8.13
2018-09-20T19:11:26.817Z,12.97
2018-09-20T19:13:55.313Z,6.73
2018-09-20T19:16:23.768Z,7.40
2018-09-20T19:18:52.185Z,13.37
2018-09-20T19:21:20.666Z,9.40
2018-09-20T19:23:50.013Z,10.57
2018-09-20T19:26:18.522Z,9.30
2018-09-20T19:28:48.773Z,10.77
2018-09-20T19:31:17.323Z,8.27
2018-09-20T19:33:45.835Z,16.00
2018-09-20T19:36:14.304Z,17.27
2018-09-20T19:38:42.897Z,15.37
2018-09-20T19:41:11.324Z,11.57
2018-09-20T19:43:41.684Z,10.00
2018-09-20T19:46:10.097Z,12.17
2018-09-20T19:48:38.518Z,15.80
2018-09-20T19:51:07.157Z,13.40
2018-09-20T19:53:35.587Z,19.17
2018-09-20T19:56:04.028Z,21.43
2018-09-20T19:58:32.507Z,15.70
2018-09-20T20:01:00.934Z,29.13
2018-09-20T20:03:29.365Z,29.60
2018-09-20T20:05:57.845Z,35.73
2018-09-20T20:08:26.321Z,35.50
2018-09-20T20:10:54.895Z,24.33
2018-09-20T20:13:23.312Z,16.80
2018-09-20T20:15:51.744Z,12.30
2018-09-20T20:18:21.210Z,9.23
2018-09-20T20:20:49.653Z,8.13
2018-09-20T20:23:18.080Z,7.60
2018-09-20T20:25:46.586Z,10.90
2018-09-20T20:28:16.247Z,7.40
2018-09-20T20:30:45.577Z,10.03
2018-09-20T20:33:14.032Z,9.10
2018-09-20T20:35:43.063Z,6.40
2018-09-20T20:38:11.468Z,8.20
2018-09-20T20:40:39.973Z,41.13
2018-09-20T20:43:08.398Z,33.23
2018-09-20T20:45:36.823Z,16.70
2018-09-20T20:48:05.257Z,31.47
2018-09-20T20:50:33.685Z,26.43
2018-09-20T20:53:02.148Z,23.90
2018-09-20T20:55:30.650Z,18.30
2018-09-20T20:57:59.077Z,11.17
2018-09-20T21:00:27.502Z,10.13
2018-09-20T21:02:55.880Z,10.47
2018-09-20T21:05:24.333Z,8.93
2018-09-20T21:07:52.729Z,8.40
2018-09-20T21:10:21.219Z,11.03
2018-09-20T21:12:49.589Z,39.80
2018-09-20T21:15:18.005Z,33.70
2018-09-20T21:17:46.417Z,17.20
2018-09-20T21:20:14.829Z,12.90
2018-09-20T21:22:43.286Z,8.87
2018-09-20T21:25:11.692Z,7.63
2018-09-20T21:27:40.149Z,12.27
2018-09-20T21:30:08.568Z,10.17
2018-09-20T21:32:37.016Z,14.17
2018-09-20T21:35:05.496Z,11.67
2018-09-20T21:37:33.908Z,9.30
2018-09-20T21:40:02.511Z,6.60
2018-09-20T21:42:30.887Z,11.43
2018-09-20T21:44:59.286Z,9.33
2018-09-20T21:47:27.732Z,9.03
2018-09-20T21:49:56.143Z,8.50
2018-09-20T21:52:24.526Z,15.10
2018-09-20T21:54:52.929Z,12.83
2018-09-20T21:57:21.296Z,8.70
2018-09-20T21:59:49.700Z,13.53
2018-09-20T22:02:23.411Z,8.97
2018-09-20T22:04:51.855Z,10.47
2018-09-20T22:07:20.249Z,12.23
2018-09-20T22:09:48.696Z,8.10
2018-09-20T22:12:17.126Z,8.80
2018-09-20T22:14:45.556Z,10.63
2018-09-20T22:17:13.986Z,8.43
2018-09-20T22:19:42.405Z,9.50
2018-09-20T22:22:10.899Z,9.40
2018-09-20T22:24:39.357Z,9.57
2018-09-20T22:27:07.828Z,6.80
2018-09-20T22:29:36.208Z,5.93
2018-09-20T22:32:04.601Z,6.00
2018-09-20T22:34:33.009Z,9.93
2018-09-20T22:37:01.424Z,5.63
2018-09-20T22:39:29.851Z,9.70
2018-09-20T22:41:58.289Z,12.10
2018-09-20T22:44:26.654Z,8.13
2018-09-20T22:46:55.072Z,12.40
2018-09-20T22:49:23.477Z,8.37
2018-09-20T22:51:51.848Z,9.80
2018-09-20T22:54:20.229Z,6.57
2018-09-20T22:56:48.629Z,13.43
2018-09-20T22:59:17.147Z,7.50
2018-09-20T23:01:45.551Z,6.70
2018-09-20T23:04:13.943Z,9.47
2018-09-20T23:06:42.396Z,7.57
2018-09-20T23:09:11.427Z,8.13
2018-09-20T23:11:40.324Z,8.57
2018-09-20T23:14:08.768Z,7.97
2018-09-20T23:16:37.186Z,11.30
2018-09-20T23:19:05.736Z,7.90
2018-09-20T23:21:34.115Z,7.20
2018-09-20T23:24:02.553Z,7.40
2018-09-20T23:26:30.939Z,6.87
2018-09-20T23:28:59.334Z,8.50
2018-09-20T23:31:27.740Z,10.20
2018-09-20T23:33:56.163Z,6.57
2018-09-20T23:36:24.762Z,10.63
2018-09-20T23:38:53.157Z,7.90
2018-09-20T23:41:21.590Z,7.13
2018-09-20T23:43:50.025Z,10.53
2018-09-20T23:46:18.469Z,10.93
2018-09-20T23:48:46.968Z,11.73
2018-09-20T23:51:15.449Z,14.80
2018-09-20T23:53:43.848Z,8.90
2018-09-20T23:56:12.297Z,11.50
2018-09-20T23:58:40.757Z,8.63
